TimeHST,TemperatureF,Dew PointF,Humidity,Sea Level PressureIn,VisibilityMPH,Wind Direction,Wind SpeedMPH,Gust SpeedMPH,PrecipitationIn,Events,Conditions,WindDirDegrees,DateUTC
12:55 AM,64.8,61.7,90,30.03,10.0,WNW,5.8,-,0.00,,Partly Cloudy,290,2013-03-29 10:55:00
1:15 AM,64.4,62.6,94,30.02,10.0,NNW,5.8,-,N/A,,Light Drizzle,330,2013-03-29 11:15:00
1:29 AM,64.4,62.6,94,30.02,10.0,NNW,6.9,-,N/A,,Mostly Cloudy,340,2013-03-29 11:29:00
1:55 AM,64.2,61.9,92,30.01,10.0,WNW,5.8,-,0.00,,Mostly Cloudy,300,2013-03-29 11:55:00
2:55 AM,64.6,61.9,91,29.99,10.0,NW,4.6,-,N/A,,Partly Cloudy,310,2013-03-29 12:55:00
3:45 AM,64.4,62.6,94,29.99,10.0,Calm,Calm,-,N/A,,Light Drizzle,0,2013-03-29 13:45:00
3:55 AM,64.2,61.7,91,29.98,10.0,WNW,6.9,-,0.00,Rain,Light Rain,290,2013-03-29 13:55:00
3:59 AM,64.4,60.8,88,29.98,10.0,WNW,6.9,-,N/A,,Mostly Cloudy,290,2013-03-29 13:59:00
4:47 AM,64.4,62.6,94,29.99,10.0,NNW,4.6,-,N/A,,Light Drizzle,340,2013-03-29 14:47:00
4:55 AM,64.9,62.6,92,29.99,10.0,North,4.6,-,0.00,,Light Drizzle,360,2013-03-29 14:55:00
4:59 AM,64.4,62.6,94,29.99,10.0,NNW,4.6,-,N/A,,Mostly Cloudy,340,2013-03-29 14:59:00
5:55 AM,64.4,61.7,91,30.00,10.0,NW,4.6,-,0.00,,Clear,320,2013-03-29 15:55:00
6:55 AM,64.4,61.9,92,30.03,10.0,NW,4.6,-,N/A,,Mostly Cloudy,310,2013-03-29 16:55:00
7:14 AM,66.2,62.6,88,30.03,10.0,NW,3.5,-,N/A,,Mostly Cloudy,320,2013-03-29 17:14:00
7:15 AM,66.2,62.6,88,30.03,10.0,NW,3.5,-,N/A,,Mostly Cloudy,310,2013-03-29 17:15:00
7:18 AM,66.2,64.4,94,30.03,10.0,NW,3.5,-,N/A,,Overcast,310,2013-03-29 17:18:00
7:23 AM,66.2,64.4,94,30.03,10.0,NNW,3.5,-,N/A,,Overcast,330,2013-03-29 17:23:00
7:55 AM,68.0,64.0,87,30.04,10.0,Variable,3.5,-,N/A,,Scattered Clouds,0,2013-03-29 17:55:00
8:37 AM,68.0,64.4,88,30.05,10.0,NE,5.8,-,N/A,,Mostly Cloudy,50,2013-03-29 18:37:00
8:48 AM,69.8,64.4,83,30.05,10.0,ENE,8.1,-,N/A,,Overcast,70,2013-03-29 18:48:00
8:55 AM,68.9,63.7,83,30.05,10.0,NE,5.8,-,N/A,,Overcast,40,2013-03-29 18:55:00
9:05 AM,69.8,62.6,78,30.05,10.0,ENE,4.6,-,N/A,,Mostly Cloudy,60,2013-03-29 19:05:00
9:09 AM,69.8,62.6,78,30.05,10.0,East,3.5,-,N/A,,Overcast,80,2013-03-29 19:09:00
9:17 AM,69.8,64.4,83,30.05,10.0,Variable,3.5,-,N/A,,Mostly Cloudy,0,2013-03-29 19:17:00
9:23 AM,69.8,64.4,83,30.05,10.0,Variable,3.5,-,N/A,,Mostly Cloudy,0,2013-03-29 19:23:00
9:55 AM,70.2,62.8,77,30.04,10.0,ENE,6.9,-,N/A,,Overcast,70,2013-03-29 19:55:00
10:13 AM,69.8,62.6,78,30.04,10.0,ENE,9.2,-,N/A,,Overcast,60,2013-03-29 20:13:00
10:55 AM,72.5,62.6,71,30.03,10.0,East,11.5,-,N/A,,Mostly Cloudy,90,2013-03-29 20:55:00
11:55 AM,74.3,63.0,68,30.02,10.0,ENE,15.0,-,N/A,,Scattered Clouds,60,2013-03-29 21:55:00
12:55 PM,74.3,63.1,68,30.00,10.0,East,13.8,20.7,N/A,,Overcast,80,2013-03-29 22:55:00
1:55 PM,75.4,61.9,63,29.98,10.0,East,19.6,-,N/A,,Partly Cloudy,90,2013-03-29 23:55:00
2:55 PM,74.3,61.9,65,29.97,10.0,ENE,16.1,-,N/A,,Partly Cloudy,60,2013-03-30 00:55:00
3:55 PM,72.7,61.5,68,29.97,10.0,ENE,10.4,-,N/A,,Mostly Cloudy,70,2013-03-30 01:55:00
4:55 PM,71.8,61.2,69,29.98,10.0,ENE,10.4,-,N/A,,Overcast,70,2013-03-30 02:55:00
5:55 PM,69.3,60.4,73,30.00,10.0,ENE,6.9,-,N/A,,Overcast,60,2013-03-30 03:55:00
6:55 PM,67.6,59.9,76,30.01,10.0,Calm,Calm,-,N/A,,Scattered Clouds,0,2013-03-30 04:55:00
7:55 PM,66.2,60.3,81,30.03,10.0,Calm,Calm,-,N/A,,Clear,0,2013-03-30 05:55:00
8:55 PM,64.2,59.5,85,30.04,10.0,Calm,Calm,-,N/A,,Clear,0,2013-03-30 06:55:00
9:55 PM,63.0,59.0,87,30.05,10.0,West,6.9,-,N/A,,Clear,280,2013-03-30 07:55:00
10:55 PM,63.9,59.4,85,30.05,10.0,West,4.6,-,N/A,,Scattered Clouds,280,2013-03-30 08:55:00
11:55 PM,62.2,59.0,89,30.03,10.0,Calm,Calm,-,N/A,,Clear,0,2013-03-30 09:55:00